createdAt,value
2017-08-17T00:01:07.683Z,13.80
2017-08-17T00:03:35.283Z,12.03
2017-08-17T00:06:02.923Z,11.47
2017-08-17T00:08:30.557Z,13.20
2017-08-17T00:10:58.248Z,12.73
2017-08-17T00:13:25.963Z,12.47
2017-08-17T00:15:53.957Z,11.73
2017-08-17T00:18:21.643Z,11.03
2017-08-17T00:20:49.369Z,12.60
2017-08-17T00:23:17.360Z,11.90
2017-08-17T00:25:45.128Z,12.40
2017-08-17T00:28:13.106Z,11.73
2017-08-17T00:30:41.135Z,11.83
2017-08-17T00:33:08.848Z,12.43
2017-08-17T00:35:36.577Z,12.27
2017-08-17T00:38:04.535Z,12.60
2017-08-17T00:40:32.355Z,12.03
2017-08-17T00:43:00.311Z,13.03
2017-08-17T00:45:28.338Z,12.50
2017-08-17T00:47:56.105Z,14.13
2017-08-17T00:50:24.096Z,13.43
2017-08-17T00:52:51.984Z,13.80
2017-08-17T00:55:19.828Z,13.23
2017-08-17T00:57:47.697Z,14.30
2017-08-17T01:00:15.585Z,13.83
2017-08-17T01:02:43.432Z,14.70
2017-08-17T01:05:11.296Z,13.83
2017-08-17T01:07:39.042Z,13.50
2017-08-17T01:10:07.007Z,14.63
2017-08-17T01:12:34.828Z,12.20
2017-08-17T01:15:02.782Z,13.10
2017-08-17T01:17:30.631Z,13.33
2017-08-17T01:19:58.318Z,13.67
2017-08-17T01:22:26.178Z,14.30
2017-08-17T01:24:53.843Z,13.97
2017-08-17T01:27:21.676Z,12.30
2017-08-17T01:29:49.767Z,13.37
2017-08-17T01:32:17.651Z,14.40
2017-08-17T01:34:45.500Z,13.63
2017-08-17T01:37:13.395Z,15.57
2017-08-17T01:39:41.034Z,14.70
2017-08-17T01:42:08.877Z,14.93
2017-08-17T01:44:36.647Z,14.17
2017-08-17T01:47:14.746Z,13.63
2017-08-17T01:49:42.780Z,13.67
2017-08-17T01:52:10.721Z,13.27
2017-08-17T01:54:38.693Z,12.77
2017-08-17T01:57:06.607Z,12.67
2017-08-17T01:59:34.573Z,14.53
2017-08-17T02:02:02.497Z,13.23
2017-08-17T02:04:30.364Z,14.10
2017-08-17T02:06:58.025Z,12.70
2017-08-17T02:09:25.741Z,12.50
2017-08-17T02:11:53.752Z,13.97
2017-08-17T02:14:21.450Z,14.27
2017-08-17T02:16:49.261Z,12.03
2017-08-17T02:19:18.179Z,12.33
2017-08-17T02:21:45.900Z,11.73
2017-08-17T02:24:13.618Z,12.13
2017-08-17T02:26:41.574Z,11.77
2017-08-17T02:29:09.425Z,12.90
2017-08-17T02:31:37.098Z,12.37
2017-08-17T02:34:04.972Z,12.50
2017-08-17T02:36:32.632Z,14.30
2017-08-17T02:39:00.501Z,14.30
2017-08-17T02:41:28.380Z,13.60
2017-08-17T02:43:56.240Z,13.60
2017-08-17T02:46:24.089Z,13.13
2017-08-17T02:48:52.136Z,15.50
2017-08-17T02:51:20.037Z,15.37
2017-08-17T02:53:48.096Z,15.23
2017-08-17T02:56:16.161Z,15.50
2017-08-17T02:58:43.844Z,14.77
2017-08-17T03:01:11.548Z,14.30
2017-08-17T03:03:39.536Z,16.23
2017-08-17T03:06:07.446Z,14.37
2017-08-17T03:08:35.469Z,15.57
2017-08-17T03:11:03.287Z,19.90
2017-08-17T03:13:31.158Z,20.53
2017-08-17T03:15:59.296Z,50.70
2017-08-17T03:18:27.361Z,27.40
2017-08-17T03:20:55.292Z,27.37
2017-08-17T03:23:23.291Z,16.50
2017-08-17T03:25:51.364Z,14.50
2017-08-17T03:28:19.271Z,14.63
2017-08-17T03:30:47.001Z,13.40
2017-08-17T03:33:14.990Z,12.67
2017-08-17T03:35:42.610Z,14.37
2017-08-17T03:38:10.499Z,14.03
2017-08-17T03:40:38.245Z,14.43
2017-08-17T03:43:06.085Z,12.97
2017-08-17T03:45:33.778Z,14.97
2017-08-17T03:48:01.792Z,13.90
2017-08-17T03:50:29.458Z,15.93
2017-08-17T03:52:57.176Z,14.00
2017-08-17T03:55:25.103Z,15.40
2017-08-17T03:57:52.853Z,15.60
2017-08-17T04:00:20.579Z,15.33
2017-08-17T04:02:48.585Z,14.93
2017-08-17T04:05:16.253Z,13.50
2017-08-17T04:07:43.907Z,14.13
2017-08-17T04:10:11.569Z,13.00
2017-08-17T04:12:39.290Z,13.30
2017-08-17T04:15:07.107Z,13.57
2017-08-17T04:17:34.989Z,12.00
2017-08-17T04:20:02.743Z,11.03
2017-08-17T04:22:30.705Z,10.30
2017-08-17T04:24:58.722Z,11.10
2017-08-17T04:27:26.432Z,11.60
2017-08-17T04:29:54.279Z,10.33
2017-08-17T04:32:22.172Z,10.07
2017-08-17T04:34:49.892Z,11.17
2017-08-17T04:37:17.881Z,10.80
2017-08-17T04:39:45.773Z,9.63
2017-08-17T04:42:13.615Z,10.07
2017-08-17T04:44:41.508Z,11.10
2017-08-17T04:47:09.526Z,10.90
2017-08-17T04:49:37.346Z,11.20
2017-08-17T04:52:11.864Z,12.37
2017-08-17T04:54:39.523Z,11.67
2017-08-17T04:57:29.718Z,11.47
2017-08-17T04:59:57.560Z,11.53
2017-08-17T05:02:25.454Z,12.70
2017-08-17T05:04:53.524Z,13.17
2017-08-17T05:07:21.361Z,11.00
2017-08-17T05:09:49.259Z,14.27
2017-08-17T05:12:17.196Z,12.80
2017-08-17T05:14:45.115Z,10.07
2017-08-17T05:17:13.063Z,10.77
2017-08-17T05:19:41.135Z,10.73
2017-08-17T05:22:08.795Z,9.13
2017-08-17T05:24:36.630Z,8.37
2017-08-17T05:27:04.598Z,9.40
2017-08-17T05:29:32.629Z,9.40
2017-08-17T05:32:00.264Z,8.20
2017-08-17T05:34:28.299Z,9.03
2017-08-17T05:36:56.003Z,9.03
2017-08-17T05:39:23.709Z,8.40
2017-08-17T05:41:51.732Z,9.33
2017-08-17T05:44:19.570Z,8.37
2017-08-17T05:46:47.469Z,7.40
2017-08-17T05:49:15.333Z,9.10
2017-08-17T05:51:43.069Z,8.07
2017-08-17T05:54:11.038Z,8.77
2017-08-17T05:56:38.722Z,8.53
2017-08-17T05:59:06.700Z,8.77
2017-08-17T06:01:34.562Z,8.30
2017-08-17T06:04:02.382Z,8.37
2017-08-17T06:06:30.349Z,7.97
2017-08-17T06:08:58.171Z,7.20
2017-08-17T06:11:25.986Z,6.47
2017-08-17T06:13:53.608Z,7.50
2017-08-17T06:16:21.346Z,7.27
2017-08-17T06:18:49.109Z,7.57
2017-08-17T06:21:16.832Z,8.33
2017-08-17T06:23:44.721Z,6.83
2017-08-17T06:26:12.401Z,7.40
2017-08-17T06:28:40.024Z,6.67
2017-08-17T06:31:07.737Z,7.07
2017-08-17T06:33:35.416Z,8.77
2017-08-17T06:36:03.017Z,7.50
2017-08-17T06:38:30.674Z,7.07
2017-08-17T06:40:58.420Z,6.60
2017-08-17T06:43:26.049Z,8.20
2017-08-17T06:45:53.653Z,6.70
2017-08-17T06:48:21.310Z,6.60
2017-08-17T06:50:48.935Z,7.70
2017-08-17T06:53:16.595Z,6.43
2017-08-17T06:55:44.276Z,7.13
2017-08-17T06:58:11.906Z,7.47
2017-08-17T07:00:39.566Z,5.70
2017-08-17T07:03:07.232Z,6.37
2017-08-17T07:05:34.864Z,7.00
2017-08-17T07:08:02.480Z,6.20
2017-08-17T07:10:30.159Z,5.27
2017-08-17T07:12:57.790Z,5.73
2017-08-17T07:15:25.372Z,5.77
2017-08-17T07:17:53.607Z,5.70
2017-08-17T07:20:21.206Z,6.10
2017-08-17T07:22:49.038Z,6.83
2017-08-17T07:25:17.021Z,6.30
2017-08-17T07:27:44.747Z,6.30
2017-08-17T07:30:12.761Z,6.03
2017-08-17T07:32:40.558Z,5.97
2017-08-17T07:35:08.491Z,5.43
2017-08-17T07:37:36.315Z,5.00
2017-08-17T07:40:04.000Z,5.90
2017-08-17T07:42:31.728Z,5.53
2017-08-17T07:44:59.542Z,7.00
2017-08-17T07:47:27.208Z,6.07
2017-08-17T07:49:54.929Z,6.23
2017-08-17T07:52:22.943Z,5.85
2017-08-17T07:54:50.807Z,6.50
2017-08-17T07:57:18.534Z,4.82
2017-08-17T07:59:46.522Z,6.03
2017-08-17T08:02:14.518Z,6.67
2017-08-17T08:04:42.231Z,6.90
2017-08-17T08:07:10.145Z,5.53
2017-08-17T08:09:38.216Z,6.30
2017-08-17T08:12:05.931Z,5.57
2017-08-17T08:14:33.900Z,5.78
2017-08-17T08:17:01.969Z,4.57
2017-08-17T08:19:29.684Z,6.45
2017-08-17T08:21:57.404Z,5.95
2017-08-17T08:24:25.272Z,6.25
2017-08-17T08:26:53.285Z,4.80
2017-08-17T08:29:21.130Z,6.40
2017-08-17T08:31:49.020Z,7.05
2017-08-17T08:34:17.089Z,6.47
2017-08-17T08:36:44.937Z,6.13
2017-08-17T08:39:12.618Z,5.40
2017-08-17T08:41:40.282Z,6.87
2017-08-17T08:44:07.943Z,5.50
2017-08-17T08:46:35.818Z,6.10
2017-08-17T08:49:03.826Z,5.00
2017-08-17T08:51:31.735Z,5.12
2017-08-17T08:53:59.780Z,5.97
2017-08-17T08:56:27.489Z,5.68
2017-08-17T08:58:55.319Z,4.78
2017-08-17T09:01:23.060Z,5.68
2017-08-17T09:03:50.977Z,5.43
2017-08-17T09:06:18.950Z,5.30
2017-08-17T09:08:47.024Z,6.37
2017-08-17T09:11:14.878Z,5.50
2017-08-17T09:13:42.596Z,4.85
2017-08-17T09:16:10.487Z,4.00
2017-08-17T09:18:38.476Z,5.35
2017-08-17T09:21:06.197Z,5.32
2017-08-17T09:23:34.225Z,4.40
2017-08-17T09:26:02.055Z,5.10
2017-08-17T09:28:29.741Z,4.60
2017-08-17T09:30:57.410Z,5.62
2017-08-17T09:33:25.257Z,4.03
2017-08-17T09:35:53.000Z,5.03
2017-08-17T09:38:21.016Z,4.93
2017-08-17T09:40:48.737Z,4.35
2017-08-17T09:43:16.701Z,5.18
2017-08-17T09:45:44.521Z,4.18
2017-08-17T09:48:12.484Z,4.32
2017-08-17T09:50:40.205Z,5.82
2017-08-17T09:53:08.422Z,4.75
2017-08-17T09:55:36.262Z,5.50
2017-08-17T09:58:04.007Z,4.60
2017-08-17T10:00:31.974Z,4.78
2017-08-17T10:02:59.685Z,4.90
2017-08-17T10:05:27.733Z,4.57
2017-08-17T10:07:55.361Z,4.90
2017-08-17T10:10:22.915Z,4.35
2017-08-17T10:12:50.482Z,5.37
2017-08-17T10:15:18.193Z,4.87
2017-08-17T10:17:45.770Z,3.80
2017-08-17T10:20:13.364Z,3.85
2017-08-17T10:22:40.966Z,4.93
2017-08-17T10:25:08.531Z,4.40
2017-08-17T10:27:36.094Z,4.47
2017-08-17T10:30:03.738Z,4.30
2017-08-17T10:32:31.418Z,4.22
2017-08-17T10:34:58.980Z,4.12
2017-08-17T10:37:26.596Z,3.75
2017-08-17T10:39:54.163Z,4.20
2017-08-17T10:42:21.825Z,4.22
2017-08-17T10:44:49.412Z,4.55
2017-08-17T10:47:17.024Z,4.05
2017-08-17T10:49:44.586Z,3.78
2017-08-17T10:52:12.194Z,4.30
2017-08-17T10:54:39.747Z,3.85
2017-08-17T10:57:07.311Z,4.07
2017-08-17T10:59:34.915Z,4.93
2017-08-17T11:02:02.483Z,4.12
2017-08-17T11:04:30.047Z,4.40
2017-08-17T11:06:57.671Z,3.70
2017-08-17T11:09:25.244Z,4.37
2017-08-17T11:11:52.820Z,4.55
2017-08-17T11:14:20.452Z,4.65
2017-08-17T11:16:48.006Z,4.03
2017-08-17T11:19:15.579Z,4.22
2017-08-17T11:21:43.199Z,3.85
2017-08-17T11:24:10.748Z,4.20
2017-08-17T11:26:38.361Z,4.30
2017-08-17T11:29:05.975Z,3.97
2017-08-17T11:31:33.540Z,3.90
2017-08-17T11:34:01.112Z,4.15
2017-08-17T11:36:28.721Z,4.07
2017-08-17T11:38:56.277Z,3.95
2017-08-17T11:41:23.937Z,3.45
2017-08-17T11:43:51.551Z,4.05
2017-08-17T11:46:19.113Z,4.43
2017-08-17T11:48:46.145Z,3.40
2017-08-17T11:51:13.203Z,4.00
2017-08-17T11:53:40.815Z,4.12
2017-08-17T11:56:08.384Z,4.32
2017-08-17T11:58:36.024Z,3.80
2017-08-17T12:01:03.598Z,3.95
2017-08-17T12:03:31.171Z,3.83
2017-08-17T12:05:58.815Z,3.90
2017-08-17T12:08:26.390Z,5.53
2017-08-17T12:10:53.937Z,6.87
2017-08-17T12:13:21.542Z,4.00
2017-08-17T12:15:49.106Z,3.92
2017-08-17T12:18:16.658Z,4.28
2017-08-17T12:20:44.270Z,3.70
2017-08-17T12:23:11.827Z,4.10
2017-08-17T12:25:39.386Z,4.80
2017-08-17T12:28:07.057Z,3.35
2017-08-17T12:30:34.624Z,3.78
2017-08-17T12:33:02.223Z,3.60
2017-08-17T12:35:29.890Z,3.45
2017-08-17T12:37:57.439Z,5.22
2017-08-17T12:40:25.024Z,4.07
2017-08-17T12:42:52.648Z,4.00
2017-08-17T12:45:20.222Z,4.45
2017-08-17T12:47:47.782Z,4.05
2017-08-17T12:50:15.377Z,4.82
2017-08-17T12:52:42.910Z,4.30
2017-08-17T12:55:10.483Z,3.78
2017-08-17T12:57:38.102Z,4.45
2017-08-17T13:00:05.651Z,4.60
2017-08-17T13:02:33.197Z,3.70
2017-08-17T13:05:00.821Z,4.93
2017-08-17T13:07:28.425Z,4.47
2017-08-17T13:09:55.970Z,6.63
2017-08-17T13:12:23.574Z,5.60
2017-08-17T13:14:51.143Z,4.33
2017-08-17T13:17:18.699Z,5.03
2017-08-17T13:19:46.340Z,5.90
2017-08-17T13:22:13.894Z,5.30
2017-08-17T13:24:41.459Z,4.17
2017-08-17T13:27:09.286Z,4.50
2017-08-17T13:29:36.824Z,5.03
2017-08-17T13:32:04.364Z,5.60
2017-08-17T13:34:31.980Z,5.07
2017-08-17T13:36:59.537Z,5.23
2017-08-17T13:39:27.094Z,7.53
2017-08-17T13:41:54.709Z,5.37
2017-08-17T13:44:22.280Z,5.67
2017-08-17T13:46:50.016Z,6.20
2017-08-17T13:49:17.644Z,5.47
2017-08-17T13:51:45.214Z,6.03
2017-08-17T13:54:12.784Z,6.00
2017-08-17T13:56:40.393Z,6.80
2017-08-17T13:59:07.945Z,5.50
2017-08-17T14:01:35.507Z,5.60
2017-08-17T14:04:03.260Z,6.57
2017-08-17T14:06:30.805Z,5.37
2017-08-17T14:08:58.374Z,6.40
2017-08-17T14:11:25.986Z,6.20
2017-08-17T14:13:53.548Z,6.10
2017-08-17T14:16:21.100Z,4.40
2017-08-17T14:18:48.721Z,6.17
2017-08-17T14:21:16.304Z,6.27
2017-08-17T14:23:43.866Z,6.80
2017-08-17T14:26:11.473Z,6.50
2017-08-17T14:28:39.034Z,6.97
2017-08-17T14:31:06.594Z,6.90
2017-08-17T14:33:34.201Z,6.07
2017-08-17T14:36:01.753Z,5.97
2017-08-17T14:38:29.310Z,6.63
2017-08-17T14:40:56.938Z,5.70
2017-08-17T14:43:24.508Z,6.03
2017-08-17T14:45:52.063Z,6.10
2017-08-17T14:48:19.657Z,5.70
2017-08-17T14:50:47.219Z,7.33
2017-08-17T14:53:14.776Z,5.93
2017-08-17T14:55:42.391Z,6.40
2017-08-17T14:58:09.948Z,6.60
2017-08-17T15:00:37.519Z,5.93
2017-08-17T15:03:05.139Z,6.13
2017-08-17T15:05:32.713Z,5.17
2017-08-17T15:08:00.411Z,5.00
2017-08-17T15:10:28.081Z,5.83
2017-08-17T15:12:55.652Z,6.00
2017-08-17T15:15:23.237Z,5.10
2017-08-17T15:17:50.849Z,5.57
2017-08-17T15:20:18.383Z,6.07
2017-08-17T15:22:45.936Z,6.03
2017-08-17T15:25:13.559Z,5.67
2017-08-17T15:27:41.117Z,4.80
2017-08-17T15:30:08.731Z,5.83
2017-08-17T15:32:36.369Z,4.60
2017-08-17T15:35:04.033Z,5.07
2017-08-17T15:37:31.595Z,5.70
2017-08-17T15:39:59.222Z,4.63
2017-08-17T15:42:26.812Z,5.70
2017-08-17T15:44:54.362Z,4.83
2017-08-17T15:47:21.970Z,4.70
2017-08-17T15:49:49.520Z,4.90
2017-08-17T15:52:17.078Z,5.03
2017-08-17T15:54:44.706Z,5.33
2017-08-17T15:57:12.457Z,5.53
2017-08-17T15:59:40.079Z,4.53
2017-08-17T16:02:07.797Z,5.43
2017-08-17T16:04:35.419Z,5.80
2017-08-17T16:07:03.038Z,5.40
2017-08-17T16:09:30.707Z,5.00
2017-08-17T16:11:58.328Z,6.00
2017-08-17T16:14:25.920Z,5.60
2017-08-17T16:16:53.569Z,6.30
2017-08-17T16:19:21.168Z,6.10
2017-08-17T16:21:48.782Z,4.40
2017-08-17T16:24:16.449Z,4.20
2017-08-17T16:26:44.043Z,4.57
2017-08-17T16:29:11.655Z,5.90
2017-08-17T16:31:39.332Z,5.33
2017-08-17T16:34:06.957Z,28.97
2017-08-17T16:36:34.590Z,15.27
2017-08-17T16:39:02.247Z,5.97
2017-08-17T16:41:29.897Z,14.93
2017-08-17T16:43:57.503Z,7.83
2017-08-17T16:46:25.172Z,9.40
2017-08-17T16:48:52.791Z,13.80
2017-08-17T16:51:20.397Z,18.47
2017-08-17T16:53:48.059Z,8.90
2017-08-17T16:56:15.671Z,9.47
2017-08-17T16:58:43.258Z,9.20
2017-08-17T17:01:10.935Z,8.20
2017-08-17T17:03:38.595Z,8.53
2017-08-17T17:06:06.889Z,7.87
2017-08-17T17:08:34.930Z,6.37
2017-08-17T17:11:02.680Z,7.40
2017-08-17T17:13:30.333Z,6.23
2017-08-17T17:15:58.039Z,11.10
2017-08-17T17:18:25.711Z,7.53
2017-08-17T17:20:53.347Z,7.53
2017-08-17T17:23:21.025Z,6.13
2017-08-17T17:25:48.637Z,6.47
2017-08-17T17:28:16.259Z,6.80
2017-08-17T17:30:43.923Z,6.63
2017-08-17T17:33:11.527Z,9.23
2017-08-17T17:35:39.111Z,7.30
2017-08-17T17:38:06.735Z,7.23
2017-08-17T17:40:34.348Z,7.80
2017-08-17T17:43:01.968Z,6.80
2017-08-17T17:45:29.756Z,7.20
2017-08-17T17:47:57.379Z,19.80
2017-08-17T17:50:25.000Z,14.80
2017-08-17T17:52:52.665Z,7.03
2017-08-17T17:55:20.275Z,10.47
2017-08-17T17:57:47.908Z,8.77
2017-08-17T18:00:15.632Z,7.47
2017-08-17T18:02:43.251Z,6.90
2017-08-17T18:05:10.862Z,7.70
2017-08-17T18:07:38.521Z,7.17
2017-08-17T18:10:06.148Z,6.60
2017-08-17T18:12:33.753Z,8.03
2017-08-17T18:15:01.406Z,6.20
2017-08-17T18:17:29.347Z,8.07
2017-08-17T18:19:56.979Z,6.53
2017-08-17T18:22:24.914Z,7.00
2017-08-17T18:24:52.550Z,7.27
2017-08-17T18:27:20.335Z,7.80
2017-08-17T18:29:48.021Z,7.00
2017-08-17T18:32:15.640Z,7.27
2017-08-17T18:34:43.341Z,7.40
2017-08-17T18:37:11.114Z,10.70
2017-08-17T18:39:38.754Z,7.80
2017-08-17T18:42:06.596Z,7.80
2017-08-17T18:44:34.721Z,8.23
2017-08-17T18:47:02.564Z,7.73
2017-08-17T18:49:30.454Z,8.20
2017-08-17T18:51:58.205Z,8.63
2017-08-17T18:54:25.978Z,9.40
2017-08-17T18:56:53.699Z,8.93
2017-08-17T18:59:21.433Z,7.43
2017-08-17T19:01:49.208Z,7.73
2017-08-17T19:04:16.845Z,8.00
2017-08-17T19:06:44.520Z,8.17
2017-08-17T19:09:12.206Z,9.47
2017-08-17T19:11:39.869Z,8.40
2017-08-17T19:14:07.525Z,8.00
2017-08-17T19:16:35.211Z,9.37
2017-08-17T19:19:02.837Z,9.07
2017-08-17T19:21:30.606Z,8.40
2017-08-17T19:23:58.203Z,9.20
2017-08-17T19:26:25.838Z,8.53
2017-08-17T19:28:53.588Z,8.60
2017-08-17T19:31:21.250Z,8.80
2017-08-17T19:33:48.864Z,9.60
2017-08-17T19:36:16.546Z,9.03
2017-08-17T19:38:44.173Z,8.80
2017-08-17T19:41:11.804Z,10.23
2017-08-17T19:43:39.501Z,9.90
2017-08-17T19:46:07.150Z,8.20
2017-08-17T19:48:34.976Z,8.17
2017-08-17T19:51:02.780Z,9.00
2017-08-17T19:53:30.376Z,8.80
2017-08-17T19:55:57.990Z,9.60
2017-08-17T19:58:25.681Z,7.00
2017-08-17T20:00:53.308Z,8.20
2017-08-17T20:03:20.944Z,8.83
2017-08-17T20:05:48.647Z,8.40
2017-08-17T20:08:16.249Z,8.80
2017-08-17T20:10:43.841Z,8.13
2017-08-17T20:13:11.485Z,7.83
2017-08-17T20:15:39.104Z,9.37
2017-08-17T20:18:07.033Z,7.13
2017-08-17T20:20:34.710Z,7.23
2017-08-17T20:23:02.388Z,9.43
2017-08-17T20:25:30.022Z,8.23
2017-08-17T20:27:57.703Z,7.43
2017-08-17T20:30:25.359Z,7.67
2017-08-17T20:32:52.983Z,7.97
2017-08-17T20:35:20.637Z,6.53
2017-08-17T20:37:48.251Z,9.47
2017-08-17T20:40:15.860Z,7.87
2017-08-17T20:42:43.572Z,8.70
2017-08-17T20:45:11.196Z,9.33
2017-08-17T20:47:38.807Z,7.67
2017-08-17T20:50:06.469Z,8.40
2017-08-17T20:52:34.140Z,7.73
2017-08-17T20:55:01.761Z,7.53
2017-08-17T20:57:29.422Z,6.40
2017-08-17T20:59:57.036Z,6.60
2017-08-17T21:02:24.648Z,6.17
2017-08-17T21:04:52.384Z,7.43
2017-08-17T21:07:19.991Z,6.90
2017-08-17T21:09:47.607Z,7.70
2017-08-17T21:12:15.291Z,6.87
2017-08-17T21:14:42.907Z,7.20
2017-08-17T21:17:10.539Z,7.60
2017-08-17T21:19:38.213Z,7.00
2017-08-17T21:22:05.832Z,7.77
2017-08-17T21:24:33.434Z,7.37
2017-08-17T21:27:01.112Z,8.33
2017-08-17T21:29:28.734Z,7.80
2017-08-17T21:31:56.341Z,7.60
2017-08-17T21:34:24.049Z,7.67
2017-08-17T21:36:51.658Z,7.77
2017-08-17T21:39:19.269Z,7.40
2017-08-17T21:41:46.941Z,8.50
2017-08-17T21:44:14.542Z,7.73
2017-08-17T21:46:42.186Z,8.57
2017-08-17T21:49:09.852Z,7.87
2017-08-17T21:51:37.476Z,8.33
2017-08-17T21:54:05.078Z,8.17
2017-08-17T21:56:32.749Z,8.57
2017-08-17T21:59:00.368Z,8.60
2017-08-17T22:01:27.972Z,8.43
2017-08-17T22:03:55.644Z,8.40
2017-08-17T22:06:23.294Z,8.83
2017-08-17T22:08:50.904Z,8.67
2017-08-17T22:11:18.644Z,8.80
2017-08-17T22:13:46.253Z,8.73
2017-08-17T22:16:13.858Z,9.67
2017-08-17T22:18:41.529Z,9.17
2017-08-17T22:21:09.148Z,8.30
2017-08-17T22:23:36.764Z,8.60
2017-08-17T22:26:04.426Z,10.10
2017-08-17T22:28:32.033Z,9.47
2017-08-17T22:30:59.647Z,9.33
2017-08-17T22:33:27.310Z,9.40
2017-08-17T22:35:54.927Z,8.63
2017-08-17T22:38:22.534Z,9.80
2017-08-17T22:40:50.212Z,9.50
2017-08-17T22:43:17.821Z,9.40
2017-08-17T22:45:45.434Z,9.73
2017-08-17T22:48:13.104Z,9.90
2017-08-17T22:50:40.701Z,8.37
2017-08-17T22:53:08.310Z,9.97
2017-08-17T22:55:35.982Z,8.60
2017-08-17T22:58:03.594Z,9.20
2017-08-17T23:00:31.215Z,13.37
2017-08-17T23:02:58.878Z,10.27
2017-08-17T23:05:26.501Z,11.20
2017-08-17T23:07:54.145Z,10.60
2017-08-17T23:10:21.820Z,9.40
2017-08-17T23:12:49.457Z,11.63
2017-08-17T23:15:17.056Z,10.10
2017-08-17T23:17:44.752Z,11.30
2017-08-17T23:20:12.363Z,11.50
2017-08-17T23:22:39.983Z,10.47
2017-08-17T23:25:07.689Z,11.10
2017-08-17T23:27:35.298Z,10.90
2017-08-17T23:30:02.934Z,10.97
2017-08-17T23:32:30.615Z,9.40
2017-08-17T23:34:58.227Z,11.67
2017-08-17T23:37:25.839Z,10.53
2017-08-17T23:39:53.512Z,10.63
2017-08-17T23:42:21.116Z,10.43
2017-08-17T23:44:48.745Z,10.90
2017-08-17T23:47:16.414Z,11.37
2017-08-17T23:49:44.033Z,11.87
2017-08-17T23:52:11.677Z,10.00
2017-08-17T23:54:39.376Z,11.07
2017-08-17T23:57:06.977Z,12.70
2017-08-17T23:59:34.599Z,11.30
